Terminal Aerodrome Forecast
Issued by NWS Billings, MT

Home | Current Version | Previous Version | Text Only | Print | Product List | Glossary On
Versions: 1 2 3 4 5 6 7 8 9 10 11 12 13 14 15 16 17 18 19 20 21 22 23 24 25 26 27
000
FTUS45 KBYZ 280418 AAA
TAFSHR
TAF AMD
KSHR 280418Z 2804/2824 31008KT 5SM -SN BR FEW006 OVC010
     FM280900 34007KT 2SM -SN BR BKN006
     FM281800 36009KT 6SM -SN BR BKN008 OVC020=

USA.gov is the U.S. government's official web portal to all federal, state and local government web resources and services.